createdAt,value
2022-10-23T00:00:36.709Z,11.47
2022-10-23T00:03:03.402Z,11.44
2022-10-23T00:05:30.359Z,11.57
2022-10-23T00:07:59.575Z,11.51
2022-10-23T00:10:27.937Z,11.49
2022-10-23T00:12:54.361Z,11.42
2022-10-23T00:15:22.910Z,11.35
2022-10-23T00:17:49.781Z,11.25
2022-10-23T00:20:17.046Z,11.23
2022-10-23T00:22:43.399Z,11.31
2022-10-23T00:25:10.808Z,11.24
2022-10-23T00:27:37.606Z,11.14
2022-10-23T00:30:05.564Z,11.13
2022-10-23T00:35:03.386Z,11.12
2022-10-23T00:37:29.811Z,11.04
2022-10-23T00:39:56.283Z,10.84
2022-10-23T00:42:22.777Z,11.01
2022-10-23T00:44:49.057Z,10.82
2022-10-23T00:47:15.579Z,10.88
2022-10-23T00:49:42.827Z,10.81
2022-10-23T00:52:13.114Z,10.98
2022-10-23T00:54:43.589Z,10.96
2022-10-23T00:57:14.341Z,10.92
2022-10-23T00:59:40.891Z,10.89
2022-10-23T01:02:08.983Z,10.83
2022-10-23T01:04:37.115Z,10.92
2022-10-23T01:07:09.958Z,11.08
2022-10-23T01:09:36.225Z,11.02
2022-10-23T01:12:17.077Z,11.01
2022-10-23T01:14:48.890Z,11.05
2022-10-23T01:17:40.841Z,11.00
2022-10-23T01:20:13.110Z,11.09
2022-10-23T01:23:07.399Z,11.02
2022-10-23T01:26:09.882Z,11.10
2022-10-23T01:28:42.891Z,10.94
2022-10-23T01:31:14.266Z,10.92
2022-10-23T01:33:51.241Z,10.94
2022-10-23T01:36:23.792Z,10.94
2022-10-23T01:38:56.483Z,11.03
2022-10-23T01:41:29.476Z,10.92
2022-10-23T01:44:05.404Z,11.08
2022-10-23T01:46:35.433Z,11.09
2022-10-23T01:49:02.907Z,11.14
2022-10-23T01:51:33.133Z,11.08
2022-10-23T01:54:01.107Z,11.17
2022-10-23T01:56:32.719Z,11.12
2022-10-23T01:59:04.440Z,11.06
2022-10-23T02:01:32.982Z,11.28
2022-10-23T02:04:03.006Z,11.39
2022-10-23T02:06:29.430Z,11.43
2022-10-23T02:08:56.235Z,11.52
2022-10-23T02:11:23.046Z,11.55
2022-10-23T02:13:59.782Z,11.50
2022-10-23T02:16:42.739Z,11.48
2022-10-23T02:19:43.515Z,11.47
2022-10-23T02:22:16.564Z,11.61
2022-10-23T02:24:57.961Z,11.60
2022-10-23T02:27:30.304Z,11.40
2022-10-23T02:30:07.660Z,11.45
2022-10-23T02:32:35.889Z,11.47
2022-10-23T02:35:02.691Z,11.22
2022-10-23T02:37:29.163Z,11.31
2022-10-23T02:39:55.738Z,11.45
2022-10-23T02:42:26.088Z,11.51
2022-10-23T02:45:27.679Z,11.44
2022-10-23T02:48:04.463Z,11.37
2022-10-23T02:50:55.343Z,11.32
2022-10-23T02:53:39.971Z,11.18
2022-10-23T02:56:36.594Z,11.08
2022-10-23T02:59:31.100Z,11.24
2022-10-23T03:02:03.128Z,11.36
2022-10-23T03:04:32.310Z,11.28
2022-10-23T03:06:59.028Z,11.30
2022-10-23T03:09:26.546Z,11.20
2022-10-23T03:11:52.957Z,11.35
2022-10-23T03:14:19.732Z,11.37
2022-10-23T03:16:46.097Z,11.33
2022-10-23T03:21:43.975Z,11.19
2022-10-23T03:24:10.340Z,11.23
2022-10-23T03:26:36.765Z,11.27
2022-10-23T03:29:03.190Z,11.21
2022-10-23T03:31:29.547Z,11.44
2022-10-23T03:33:55.997Z,11.47
2022-10-23T03:36:22.434Z,11.45
2022-10-23T03:38:48.877Z,11.37
2022-10-23T03:41:15.385Z,11.34
2022-10-23T03:43:41.752Z,11.35
2022-10-23T03:46:12.289Z,11.36
2022-10-23T03:48:39.107Z,11.42
2022-10-23T03:51:06.304Z,11.47
2022-10-23T03:53:32.663Z,11.42
2022-10-23T03:55:59.121Z,11.37
2022-10-23T03:58:25.453Z,11.33
2022-10-23T04:00:51.901Z,11.33
2022-10-23T04:03:18.318Z,11.31
2022-10-23T04:05:44.655Z,11.39
2022-10-23T04:08:11.111Z,11.33
2022-10-23T04:10:37.471Z,11.33
2022-10-23T04:13:03.834Z,11.23
2022-10-23T04:15:30.180Z,11.32
2022-10-23T04:17:56.555Z,11.17
2022-10-23T04:20:22.927Z,11.16
2022-10-23T04:22:49.254Z,10.97
2022-10-23T04:25:16.603Z,11.11
2022-10-23T04:27:43.256Z,10.84
2022-10-23T04:30:10.389Z,10.88
2022-10-23T04:32:36.952Z,10.96
2022-10-23T04:35:03.518Z,10.97
2022-10-23T04:37:29.950Z,11.15
2022-10-23T04:39:56.301Z,11.16
2022-10-23T04:42:22.725Z,10.94
2022-10-23T04:44:49.186Z,10.85
2022-10-23T04:47:15.508Z,10.91
2022-10-23T04:49:41.849Z,10.88
2022-10-23T04:52:08.199Z,10.64
2022-10-23T04:54:38.953Z,10.87
2022-10-23T04:57:05.381Z,11.01
2022-10-23T04:59:31.747Z,10.86
2022-10-23T05:01:58.169Z,10.80
2022-10-23T05:04:24.537Z,10.77
2022-10-23T05:06:50.975Z,10.77
2022-10-23T05:09:17.367Z,10.73
2022-10-23T05:11:43.736Z,10.67
2022-10-23T05:14:10.129Z,10.43
2022-10-23T05:16:45.516Z,10.60
2022-10-23T05:19:21.925Z,10.74
2022-10-23T05:21:55.697Z,10.25
2022-10-23T05:24:26.365Z,10.57
2022-10-23T05:26:53.431Z,10.53
2022-10-23T05:29:20.565Z,10.37
2022-10-23T05:31:52.393Z,10.39
2022-10-23T05:34:22.371Z,10.57
2022-10-23T05:36:49.156Z,10.62
2022-10-23T05:39:16.054Z,10.70
2022-10-23T05:41:42.408Z,10.77
2022-10-23T05:44:08.742Z,10.98
2022-10-23T05:46:35.147Z,10.99
2022-10-23T05:49:01.530Z,10.94
2022-10-23T05:51:27.915Z,10.77
2022-10-23T05:53:55.045Z,10.90
2022-10-23T05:56:21.378Z,10.87
2022-10-23T05:58:47.782Z,10.85
2022-10-23T06:01:14.907Z,10.97
2022-10-23T06:03:41.418Z,10.88
2022-10-23T06:06:08.098Z,10.99
2022-10-23T06:08:35.520Z,10.92
2022-10-23T06:11:09.871Z,11.16
2022-10-23T06:13:36.985Z,11.26
2022-10-23T06:16:11.510Z,11.16
2022-10-23T06:18:37.878Z,11.09
2022-10-23T06:21:04.451Z,11.09
2022-10-23T06:23:32.550Z,11.42
2022-10-23T06:25:59.356Z,11.16
2022-10-23T06:28:26.357Z,11.19
2022-10-23T06:30:52.764Z,11.09
2022-10-23T06:33:19.294Z,11.35
2022-10-23T06:35:46.256Z,11.22
2022-10-23T06:38:12.776Z,11.26
2022-10-23T06:40:39.164Z,11.24
2022-10-23T06:43:05.739Z,11.20
2022-10-23T06:45:36.662Z,11.15
2022-10-23T06:48:03.148Z,11.20
2022-10-23T06:50:32.120Z,11.32
2022-10-23T06:52:58.481Z,11.31
2022-10-23T06:55:25.058Z,11.23
2022-10-23T06:57:51.403Z,11.22
2022-10-23T07:00:17.876Z,11.37
2022-10-23T07:02:44.614Z,11.44
2022-10-23T07:05:13.598Z,11.68
2022-10-23T07:07:40.598Z,11.70
2022-10-23T07:10:07.798Z,11.38
2022-10-23T07:12:34.227Z,11.26
2022-10-23T07:15:00.612Z,11.41
2022-10-23T07:17:29.177Z,11.56
2022-10-23T07:19:55.533Z,11.61
2022-10-23T07:22:21.889Z,11.41
2022-10-23T07:24:48.204Z,11.53
2022-10-23T07:27:14.553Z,11.71
2022-10-23T07:29:42.005Z,11.76
2022-10-23T07:32:09.111Z,11.74
2022-10-23T07:34:36.826Z,11.95
2022-10-23T07:37:03.203Z,11.95
2022-10-23T07:39:29.521Z,12.02
2022-10-23T07:41:55.880Z,12.00
2022-10-23T07:44:24.380Z,12.22
2022-10-23T07:46:53.321Z,12.26
2022-10-23T07:49:19.786Z,11.79
2022-10-23T07:51:50.449Z,11.76
2022-10-23T07:54:18.164Z,11.74
2022-10-23T07:56:44.570Z,11.99
2022-10-23T07:59:13.221Z,11.89
2022-10-23T08:01:42.381Z,12.30
2022-10-23T08:04:10.298Z,12.02
2022-10-23T08:06:36.674Z,11.91
2022-10-23T08:09:06.318Z,12.09
2022-10-23T08:11:35.443Z,11.86
2022-10-23T08:14:06.518Z,11.71
2022-10-23T08:16:34.982Z,12.08
2022-10-23T08:19:01.896Z,11.95
2022-10-23T08:21:28.924Z,11.91
2022-10-23T08:23:57.422Z,12.32
2022-10-23T08:26:25.096Z,12.27
2022-10-23T08:28:52.899Z,12.20
2022-10-23T08:31:20.791Z,12.37
2022-10-23T08:33:47.258Z,12.49
2022-10-23T08:36:25.260Z,12.55
2022-10-23T08:38:56.063Z,12.45
2022-10-23T08:41:27.515Z,12.54
2022-10-23T08:44:17.046Z,12.96
2022-10-23T08:46:59.203Z,12.68
2022-10-23T08:49:50.505Z,12.51
2022-10-23T08:52:48.907Z,12.62
2022-10-23T08:55:26.167Z,12.59
2022-10-23T08:57:59.855Z,12.66
2022-10-23T09:00:26.425Z,12.54
2022-10-23T09:02:54.410Z,12.70
2022-10-23T09:05:49.890Z,13.21
2022-10-23T09:08:43.772Z,13.15
2022-10-23T09:11:21.920Z,12.91
2022-10-23T09:14:24.999Z,13.14
2022-10-23T09:17:04.842Z,13.21
2022-10-23T09:19:32.005Z,13.18
2022-10-23T09:21:58.540Z,13.70
2022-10-23T09:24:28.333Z,13.88
2022-10-23T09:26:54.798Z,14.05
2022-10-23T09:29:32.701Z,13.89
2022-10-23T09:32:01.667Z,14.35
2022-10-23T09:34:30.552Z,14.30
2022-10-23T09:37:00.032Z,14.06
2022-10-23T09:39:29.817Z,14.39
2022-10-23T09:41:57.453Z,14.08
2022-10-23T09:44:29.778Z,14.01
2022-10-23T09:47:08.335Z,14.47
2022-10-23T09:49:35.068Z,14.62
2022-10-23T09:52:10.615Z,14.54
2022-10-23T09:54:46.926Z,14.02
2022-10-23T09:57:22.221Z,14.09
2022-10-23T09:59:54.347Z,14.13
2022-10-23T10:02:36.002Z,14.34
2022-10-23T10:05:26.212Z,14.29
2022-10-23T10:07:59.890Z,14.11
2022-10-23T10:10:34.794Z,14.20
2022-10-23T10:13:14.251Z,14.12
2022-10-23T10:15:52.766Z,14.56
2022-10-23T10:18:24.940Z,14.73
2022-10-23T10:21:05.352Z,14.37
2022-10-23T10:23:43.649Z,14.64
2022-10-23T10:29:14.442Z,14.34
2022-10-23T10:31:56.835Z,14.22
2022-10-23T10:34:41.401Z,14.27
2022-10-23T10:37:26.002Z,14.44
2022-10-23T10:40:02.573Z,14.71
2022-10-23T10:42:45.515Z,14.50
2022-10-23T10:45:53.519Z,14.59
2022-10-23T10:48:28.512Z,14.46
2022-10-23T10:51:02.217Z,14.58
2022-10-23T10:53:47.180Z,14.75
2022-10-23T10:56:15.892Z,15.07
2022-10-23T10:58:50.556Z,14.85
2022-10-23T11:01:27.202Z,14.98
2022-10-23T11:04:01.756Z,15.27
2022-10-23T11:06:31.873Z,15.35
2022-10-23T11:09:19.738Z,15.50
2022-10-23T11:11:48.538Z,16.03
2022-10-23T11:14:21.272Z,15.81
2022-10-23T11:16:53.317Z,15.85
2022-10-23T11:19:26.681Z,16.18
2022-10-23T11:22:21.705Z,16.07
2022-10-23T11:24:55.802Z,16.35
2022-10-23T11:28:01.685Z,16.08
2022-10-23T11:30:42.673Z,16.41
2022-10-23T11:33:29.976Z,16.66
2022-10-23T11:36:17.240Z,17.14
2022-10-23T11:38:47.388Z,17.48
2022-10-23T11:41:26.423Z,17.39
2022-10-23T11:44:03.477Z,17.59
2022-10-23T11:46:35.839Z,17.17
2022-10-23T11:49:05.937Z,17.27
2022-10-23T11:51:38.033Z,17.32
2022-10-23T11:54:10.416Z,17.69
2022-10-23T11:56:38.625Z,17.53
2022-10-23T11:59:50.538Z,17.89
2022-10-23T12:02:34.357Z,17.98
2022-10-23T12:05:06.640Z,18.23
2022-10-23T12:07:38.499Z,18.48
2022-10-23T12:10:17.469Z,18.46
2022-10-23T12:13:01.073Z,18.69
2022-10-23T12:15:28.370Z,18.42
2022-10-23T12:18:07.432Z,18.80
2022-10-23T12:20:50.337Z,18.51
2022-10-23T12:23:31.701Z,18.31
2022-10-23T12:26:07.583Z,18.46
2022-10-23T12:28:56.970Z,18.43
2022-10-23T12:31:45.625Z,18.33
2022-10-23T12:34:24.012Z,18.48
2022-10-23T12:37:26.889Z,18.70
2022-10-23T12:39:55.825Z,18.62
2022-10-23T12:42:27.833Z,18.40
2022-10-23T12:45:02.416Z,18.59
2022-10-23T12:47:30.091Z,18.51
2022-10-23T12:49:56.503Z,18.57
2022-10-23T12:52:25.196Z,18.66
2022-10-23T12:54:51.787Z,18.62
2022-10-23T12:57:30.099Z,18.38
2022-10-23T13:00:00.673Z,18.51
2022-10-23T13:02:29.754Z,18.62
2022-10-23T13:05:00.172Z,18.67
2022-10-23T13:07:29.314Z,18.70
2022-10-23T13:09:57.403Z,18.77
2022-10-23T13:12:27.175Z,18.89
2022-10-23T13:14:59.024Z,18.68
2022-10-23T13:17:36.367Z,18.60
2022-10-23T13:20:11.337Z,18.68
2022-10-23T13:22:40.577Z,18.75
2022-10-23T13:25:24.947Z,18.89
2022-10-23T13:27:51.759Z,18.90
2022-10-23T13:30:33.249Z,19.03
2022-10-23T13:33:00.620Z,18.94
2022-10-23T13:35:27.480Z,19.09
2022-10-23T13:37:53.909Z,19.03
2022-10-23T13:40:26.418Z,19.03
2022-10-23T13:42:55.175Z,19.04
2022-10-23T13:45:24.359Z,19.14
2022-10-23T13:47:50.782Z,19.33
2022-10-23T13:50:17.770Z,19.41
2022-10-23T13:52:44.592Z,19.23
2022-10-23T13:55:20.575Z,19.16
2022-10-23T13:57:47.037Z,19.09
2022-10-23T14:00:15.051Z,19.20
2022-10-23T14:02:42.653Z,19.25
2022-10-23T14:05:09.851Z,19.30
2022-10-23T14:07:36.233Z,19.15
2022-10-23T14:10:02.708Z,19.12
2022-10-23T14:12:29.069Z,19.04
2022-10-23T14:14:55.396Z,19.06
2022-10-23T14:17:21.866Z,19.02
2022-10-23T14:19:48.283Z,18.95
2022-10-23T14:22:14.628Z,18.90
2022-10-23T14:24:41.005Z,18.85
2022-10-23T14:27:07.399Z,19.02
2022-10-23T14:29:33.791Z,19.01
2022-10-23T14:32:00.271Z,18.93
2022-10-23T14:34:26.639Z,18.99
2022-10-23T14:37:07.309Z,18.86
2022-10-23T14:39:34.282Z,18.86
2022-10-23T14:42:00.691Z,18.83
2022-10-23T14:44:27.112Z,18.87
2022-10-23T14:46:53.508Z,18.87
2022-10-23T14:49:20.037Z,18.87
2022-10-23T14:51:46.380Z,18.97
2022-10-23T14:54:12.859Z,18.97
2022-10-23T14:56:40.709Z,19.00
2022-10-23T14:59:10.659Z,19.05
2022-10-23T15:01:45.532Z,19.05
2022-10-23T15:04:15.192Z,19.13
2022-10-23T15:06:42.287Z,19.08
2022-10-23T15:09:09.022Z,19.12
2022-10-23T15:11:35.377Z,19.09
2022-10-23T15:14:01.777Z,19.06
2022-10-23T15:16:28.490Z,19.07
2022-10-23T15:18:54.877Z,19.08
2022-10-23T15:21:21.403Z,19.07
2022-10-23T15:23:48.131Z,19.11
2022-10-23T15:26:20.915Z,19.13
2022-10-23T15:28:48.431Z,19.09
2022-10-23T15:31:30.185Z,19.09
2022-10-23T15:34:00.033Z,18.97
2022-10-23T15:36:26.950Z,18.99
2022-10-23T15:38:53.307Z,18.88
2022-10-23T15:41:29.877Z,18.90
2022-10-23T15:43:57.628Z,18.79
2022-10-23T15:46:24.047Z,18.79
2022-10-23T15:48:50.388Z,18.76
2022-10-23T15:51:16.785Z,18.78
2022-10-23T15:53:43.101Z,18.82
2022-10-23T15:56:09.473Z,18.84
2022-10-23T15:58:35.818Z,18.63
2022-10-23T16:01:06.241Z,18.62
2022-10-23T16:03:34.104Z,18.71
2022-10-23T16:06:04.398Z,18.63
2022-10-23T16:08:30.988Z,18.66
2022-10-23T16:10:59.086Z,18.66
2022-10-23T16:13:26.539Z,18.72
2022-10-23T16:15:55.532Z,18.58
2022-10-23T16:18:22.777Z,18.61
2022-10-23T16:20:50.900Z,18.68
2022-10-23T16:23:17.339Z,18.73
2022-10-23T16:25:43.847Z,18.82
2022-10-23T16:28:10.184Z,18.89
2022-10-23T16:30:41.145Z,18.80
2022-10-23T16:33:07.591Z,18.71
2022-10-23T16:35:33.985Z,18.58
2022-10-23T16:38:00.346Z,18.58
2022-10-23T16:40:26.679Z,18.41
2022-10-23T16:42:53.046Z,18.29
2022-10-23T16:45:19.408Z,18.53
2022-10-23T16:47:45.803Z,18.34
2022-10-23T16:50:12.140Z,18.23
2022-10-23T16:52:38.604Z,18.11
2022-10-23T16:55:05.288Z,18.06
2022-10-23T16:57:31.631Z,17.99
2022-10-23T16:59:57.999Z,17.95
2022-10-23T17:02:24.432Z,17.93
2022-10-23T17:04:50.951Z,17.91
2022-10-23T17:07:17.428Z,17.95
2022-10-23T17:09:46.450Z,18.47
2022-10-23T17:12:13.997Z,18.17
2022-10-23T17:14:40.457Z,18.10
2022-10-23T17:17:09.594Z,18.00
2022-10-23T17:19:45.236Z,17.89
2022-10-23T17:22:13.173Z,17.80
2022-10-23T17:24:41.026Z,17.66
2022-10-23T17:27:07.836Z,17.84
2022-10-23T17:29:34.778Z,17.86
2022-10-23T17:32:01.258Z,17.81
2022-10-23T17:34:27.711Z,17.81
2022-10-23T17:36:55.253Z,17.71
2022-10-23T17:39:24.382Z,17.81
2022-10-23T17:41:51.266Z,17.74
2022-10-23T17:44:18.024Z,17.75
2022-10-23T17:46:44.547Z,17.69
2022-10-23T17:49:12.053Z,17.90
2022-10-23T17:51:38.731Z,17.71
2022-10-23T17:54:09.384Z,17.86
2022-10-23T17:56:37.530Z,17.73
2022-10-23T17:59:07.076Z,17.82
2022-10-23T18:01:33.777Z,17.99
2022-10-23T18:04:02.606Z,17.89
2022-10-23T18:06:33.979Z,17.81
2022-10-23T18:09:02.696Z,17.83
2022-10-23T18:11:32.337Z,17.90
2022-10-23T18:16:32.100Z,17.89
2022-10-23T18:19:01.836Z,17.72
2022-10-23T18:21:28.417Z,17.77
2022-10-23T18:23:54.990Z,17.68
2022-10-23T18:26:25.044Z,17.52
2022-10-23T18:28:55.429Z,17.55
2022-10-23T18:31:23.386Z,17.40
2022-10-23T18:33:49.773Z,17.19
2022-10-23T18:36:22.695Z,17.13
2022-10-23T18:38:50.071Z,17.05
2022-10-23T18:41:17.947Z,17.07
2022-10-23T18:43:44.817Z,17.08
2022-10-23T18:46:13.154Z,16.98
2022-10-23T18:48:40.489Z,17.18
2022-10-23T18:51:15.878Z,17.03
2022-10-23T18:53:43.156Z,16.95
2022-10-23T18:56:09.502Z,16.80
2022-10-23T18:58:35.883Z,16.84
2022-10-23T19:01:02.461Z,16.77
2022-10-23T19:03:28.916Z,16.76
2022-10-23T19:05:55.287Z,16.69
2022-10-23T19:08:21.937Z,16.54
2022-10-23T19:10:50.163Z,16.62
2022-10-23T19:13:17.101Z,16.44
2022-10-23T19:15:44.139Z,16.45
2022-10-23T19:18:11.061Z,16.47
2022-10-23T19:20:37.752Z,16.61
2022-10-23T19:23:06.312Z,16.58
2022-10-23T19:25:34.655Z,16.70
2022-10-23T19:28:02.353Z,16.81
2022-10-23T19:30:29.244Z,16.86
2022-10-23T19:32:55.598Z,16.86
2022-10-23T19:35:22.517Z,16.83
2022-10-23T19:37:49.316Z,16.79
2022-10-23T19:40:15.977Z,16.88
2022-10-23T19:42:43.610Z,16.80
2022-10-23T19:45:13.162Z,16.82
2022-10-23T19:47:40.622Z,16.79
2022-10-23T19:50:08.995Z,16.84
2022-10-23T19:52:35.843Z,16.73
2022-10-23T19:55:03.235Z,16.81
2022-10-23T19:57:33.624Z,16.96
2022-10-23T20:00:00.924Z,16.73
2022-10-23T20:02:28.178Z,16.73
2022-10-23T20:04:54.652Z,16.82
2022-10-23T20:07:21.183Z,16.71
2022-10-23T20:09:47.575Z,17.09
2022-10-23T20:12:14.071Z,16.96
2022-10-23T20:14:40.416Z,16.87
2022-10-23T20:17:06.791Z,16.75
2022-10-23T20:19:34.262Z,16.76
2022-10-23T20:22:00.789Z,16.65
2022-10-23T20:24:27.241Z,16.57
2022-10-23T20:26:55.231Z,16.58
2022-10-23T20:29:22.450Z,16.47
2022-10-23T20:31:48.848Z,16.49
2022-10-23T20:34:15.287Z,16.40
2022-10-23T20:36:46.565Z,16.40
2022-10-23T20:39:24.514Z,16.36
2022-10-23T20:41:51.347Z,16.27
2022-10-23T20:44:18.684Z,16.24
2022-10-23T20:46:45.610Z,16.08
2022-10-23T20:49:13.059Z,16.13
2022-10-23T20:51:40.201Z,16.10
2022-10-23T20:54:06.666Z,16.07
2022-10-23T20:56:35.780Z,16.14
2022-10-23T20:59:05.016Z,16.11
2022-10-23T21:01:33.008Z,16.06
2022-10-23T21:04:02.213Z,15.99
2022-10-23T21:06:45.750Z,15.98
2022-10-23T21:09:18.615Z,15.88
2022-10-23T21:11:45.260Z,15.87
2022-10-23T21:14:12.025Z,15.78
2022-10-23T21:16:44.492Z,15.77
2022-10-23T21:19:13.856Z,15.74
2022-10-23T21:21:40.203Z,15.82
2022-10-23T21:24:09.274Z,16.20
2022-10-23T21:26:36.318Z,16.07
2022-10-23T21:29:19.788Z,15.94
2022-10-23T21:31:58.434Z,15.82
2022-10-23T21:34:25.886Z,15.88
2022-10-23T21:37:12.838Z,15.87
2022-10-23T21:39:38.963Z,15.68
2022-10-23T21:42:05.510Z,15.67
2022-10-23T21:44:31.928Z,15.67
2022-10-23T21:46:58.278Z,15.56
2022-10-23T21:49:24.682Z,15.42
2022-10-23T21:51:51.168Z,15.17
2022-10-23T21:54:17.514Z,14.95
2022-10-23T21:56:49.258Z,15.35
2022-10-23T21:59:19.074Z,15.08
2022-10-23T22:01:47.828Z,15.49
2022-10-23T22:04:19.889Z,15.04
2022-10-23T22:06:48.339Z,14.94
2022-10-23T22:09:17.334Z,15.01
2022-10-23T22:11:43.715Z,15.25
2022-10-23T22:14:10.525Z,15.04
2022-10-23T22:16:37.214Z,14.91
2022-10-23T22:19:04.169Z,14.88
2022-10-23T22:21:31.000Z,14.95
2022-10-23T22:23:59.741Z,14.88
2022-10-23T22:26:31.875Z,14.70
2022-10-23T22:29:01.713Z,14.72
2022-10-23T22:31:30.750Z,14.56
2022-10-23T22:33:58.375Z,14.38
2022-10-23T22:36:25.763Z,14.35
2022-10-23T22:38:53.178Z,14.36
2022-10-23T22:41:19.935Z,14.28
2022-10-23T22:43:46.704Z,14.17
2022-10-23T22:46:18.766Z,14.35
2022-10-23T22:48:45.683Z,14.26
2022-10-23T22:51:14.657Z,14.28
2022-10-23T22:53:41.704Z,14.33
2022-10-23T22:56:14.879Z,14.32
2022-10-23T22:58:41.546Z,14.31
2022-10-23T23:01:14.306Z,14.27
2022-10-23T23:03:42.528Z,14.22
2022-10-23T23:06:09.532Z,13.92
2022-10-23T23:08:37.635Z,13.90
2022-10-23T23:11:05.143Z,13.95
2022-10-23T23:13:31.924Z,14.04
2022-10-23T23:15:58.812Z,14.10
2022-10-23T23:18:25.416Z,14.17
2022-10-23T23:20:51.812Z,13.93
2022-10-23T23:23:18.659Z,13.81
2022-10-23T23:25:47.393Z,13.62
2022-10-23T23:28:16.059Z,13.72
2022-10-23T23:30:43.051Z,13.80
2022-10-23T23:33:10.575Z,13.77
2022-10-23T23:35:45.086Z,13.82
2022-10-23T23:38:13.022Z,13.68
2022-10-23T23:40:40.237Z,13.72
2022-10-23T23:43:07.045Z,13.58
2022-10-23T23:45:33.771Z,13.59
2022-10-23T23:48:00.355Z,13.62
2022-10-23T23:50:27.924Z,13.87
2022-10-23T23:52:54.314Z,13.68
2022-10-23T23:55:20.682Z,13.64
2022-10-23T23:57:47.350Z,13.73
